sensor_id;sensor_type;location;lat;lon;timestamp;P1;durP1;ratioP1;P2;durP2;ratioP2
22160;SDS011;49035;48.812;11.762;2024-01-07T00:01:31;15.97;;;9.23;;
22160;SDS011;49035;48.812;11.762;2024-01-07T00:03:57;18.50;;;9.50;;
22160;SDS011;49035;48.812;11.762;2024-01-07T00:06:22;13.83;;;8.67;;
22160;SDS011;49035;48.812;11.762;2024-01-07T00:08:48;14.90;;;9.33;;
22160;SDS011;49035;48.812;11.762;2024-01-07T00:11:14;13.90;;;8.53;;
22160;SDS011;49035;48.812;11.762;2024-01-07T00:13:39;14.43;;;9.27;;
22160;SDS011;49035;48.812;11.762;2024-01-07T00:16:05;15.23;;;8.70;;
22160;SDS011;49035;48.812;11.762;2024-01-07T00:18:31;12.30;;;8.20;;
22160;SDS011;49035;48.812;11.762;2024-01-07T00:20:56;17.80;;;9.57;;
22160;SDS011;49035;48.812;11.762;2024-01-07T00:23:22;15.40;;;10.10;;
22160;SDS011;49035;48.812;11.762;2024-01-07T00:25:48;17.33;;;10.20;;
22160;SDS011;49035;48.812;11.762;2024-01-07T00:28:13;13.43;;;8.17;;
22160;SDS011;49035;48.812;11.762;2024-01-07T00:30:39;17.30;;;9.60;;
22160;SDS011;49035;48.812;11.762;2024-01-07T00:33:05;18.10;;;9.90;;
22160;SDS011;49035;48.812;11.762;2024-01-07T00:35:30;16.10;;;9.47;;
22160;SDS011;49035;48.812;11.762;2024-01-07T00:37:56;19.83;;;10.37;;
22160;SDS011;49035;48.812;11.762;2024-01-07T00:40:25;19.30;;;10.13;;
22160;SDS011;49035;48.812;11.762;2024-01-07T00:42:51;21.53;;;10.00;;
22160;SDS011;49035;48.812;11.762;2024-01-07T00:45:17;18.50;;;10.43;;
22160;SDS011;49035;48.812;11.762;2024-01-07T00:47:43;19.40;;;10.50;;
22160;SDS011;49035;48.812;11.762;2024-01-07T00:50:09;21.60;;;10.83;;
22160;SDS011;49035;48.812;11.762;2024-01-07T00:52:35;20.70;;;10.80;;
22160;SDS011;49035;48.812;11.762;2024-01-07T00:55:02;21.93;;;10.67;;
22160;SDS011;49035;48.812;11.762;2024-01-07T00:57:29;21.57;;;11.00;;
22160;SDS011;49035;48.812;11.762;2024-01-07T00:59:55;21.83;;;11.07;;
22160;SDS011;49035;48.812;11.762;2024-01-07T01:02:20;22.97;;;10.63;;
22160;SDS011;49035;48.812;11.762;2024-01-07T01:04:46;18.73;;;10.73;;
22160;SDS011;49035;48.812;11.762;2024-01-07T01:07:12;19.77;;;10.10;;
22160;SDS011;49035;48.812;11.762;2024-01-07T01:09:38;18.73;;;11.20;;
22160;SDS011;49035;48.812;11.762;2024-01-07T01:12:03;16.17;;;10.23;;
22160;SDS011;49035;48.812;11.762;2024-01-07T01:14:29;22.27;;;10.73;;
22160;SDS011;49035;48.812;11.762;2024-01-07T01:16:55;21.13;;;10.13;;
22160;SDS011;49035;48.812;11.762;2024-01-07T01:19:20;17.57;;;9.80;;
22160;SDS011;49035;48.812;11.762;2024-01-07T01:21:46;20.43;;;10.80;;
22160;SDS011;49035;48.812;11.762;2024-01-07T01:24:11;18.03;;;9.97;;
22160;SDS011;49035;48.812;11.762;2024-01-07T01:26:37;19.57;;;10.43;;
22160;SDS011;49035;48.812;11.762;2024-01-07T01:29:04;24.23;;;10.50;;
22160;SDS011;49035;48.812;11.762;2024-01-07T01:31:30;16.83;;;10.23;;
22160;SDS011;49035;48.812;11.762;2024-01-07T01:33:55;18.67;;;10.97;;
22160;SDS011;49035;48.812;11.762;2024-01-07T01:36:21;19.47;;;11.30;;
22160;SDS011;49035;48.812;11.762;2024-01-07T01:38:46;19.33;;;11.33;;
22160;SDS011;49035;48.812;11.762;2024-01-07T01:41:13;22.67;;;11.73;;
22160;SDS011;49035;48.812;11.762;2024-01-07T01:43:39;19.13;;;11.13;;
22160;SDS011;49035;48.812;11.762;2024-01-07T01:46:05;20.57;;;10.70;;
22160;SDS011;49035;48.812;11.762;2024-01-07T01:48:31;20.17;;;11.90;;
22160;SDS011;49035;48.812;11.762;2024-01-07T01:50:57;22.97;;;12.33;;
22160;SDS011;49035;48.812;11.762;2024-01-07T01:53:23;22.87;;;11.67;;
22160;SDS011;49035;48.812;11.762;2024-01-07T01:55:51;21.43;;;11.40;;
22160;SDS011;49035;48.812;11.762;2024-01-07T01:58:17;23.20;;;12.63;;
22160;SDS011;49035;48.812;11.762;2024-01-07T02:00:45;19.63;;;12.00;;
22160;SDS011;49035;48.812;11.762;2024-01-07T02:03:11;20.07;;;11.57;;
22160;SDS011;49035;48.812;11.762;2024-01-07T02:05:37;20.77;;;11.60;;
22160;SDS011;49035;48.812;11.762;2024-01-07T02:08:02;19.37;;;11.03;;
22160;SDS011;49035;48.812;11.762;2024-01-07T02:10:29;20.50;;;11.73;;
22160;SDS011;49035;48.812;11.762;2024-01-07T02:12:59;18.90;;;12.17;;
22160;SDS011;49035;48.812;11.762;2024-01-07T02:15:25;21.20;;;12.03;;
22160;SDS011;49035;48.812;11.762;2024-01-07T02:17:51;18.90;;;11.80;;
22160;SDS011;49035;48.812;11.762;2024-01-07T02:20:17;20.33;;;11.90;;
22160;SDS011;49035;48.812;11.762;2024-01-07T02:22:42;21.43;;;11.97;;
22160;SDS011;49035;48.812;11.762;2024-01-07T02:25:08;20.00;;;11.87;;
22160;SDS011;49035;48.812;11.762;2024-01-07T02:27:34;18.90;;;11.53;;
22160;SDS011;49035;48.812;11.762;2024-01-07T02:30:00;19.07;;;11.20;;
22160;SDS011;49035;48.812;11.762;2024-01-07T02:32:25;23.00;;;12.30;;
22160;SDS011;49035;48.812;11.762;2024-01-07T02:34:51;20.60;;;12.60;;
22160;SDS011;49035;48.812;11.762;2024-01-07T02:37:17;19.83;;;12.03;;
22160;SDS011;49035;48.812;11.762;2024-01-07T02:39:42;19.33;;;11.00;;
22160;SDS011;49035;48.812;11.762;2024-01-07T02:42:09;20.50;;;11.50;;
22160;SDS011;49035;48.812;11.762;2024-01-07T02:44:35;24.37;;;12.60;;
22160;SDS011;49035;48.812;11.762;2024-01-07T02:47:00;22.00;;;12.70;;
22160;SDS011;49035;48.812;11.762;2024-01-07T02:49:26;24.60;;;12.83;;
22160;SDS011;49035;48.812;11.762;2024-01-07T02:51:53;24.20;;;12.67;;
22160;SDS011;49035;48.812;11.762;2024-01-07T02:54:18;19.20;;;11.03;;
22160;SDS011;49035;48.812;11.762;2024-01-07T02:56:44;20.90;;;12.60;;
22160;SDS011;49035;48.812;11.762;2024-01-07T02:59:09;19.13;;;11.40;;
22160;SDS011;49035;48.812;11.762;2024-01-07T03:01:35;20.60;;;12.67;;
22160;SDS011;49035;48.812;11.762;2024-01-07T03:04:05;20.87;;;11.67;;
22160;SDS011;49035;48.812;11.762;2024-01-07T03:06:32;18.40;;;11.87;;
22160;SDS011;49035;48.812;11.762;2024-01-07T03:08:57;26.93;;;12.10;;
22160;SDS011;49035;48.812;11.762;2024-01-07T03:11:23;22.47;;;12.13;;
22160;SDS011;49035;48.812;11.762;2024-01-07T03:13:48;22.13;;;12.57;;
22160;SDS011;49035;48.812;11.762;2024-01-07T03:16:20;20.97;;;11.93;;
22160;SDS011;49035;48.812;11.762;2024-01-07T03:18:49;22.53;;;12.70;;
22160;SDS011;49035;48.812;11.762;2024-01-07T03:23:44;19.60;;;12.70;;
22160;SDS011;49035;48.812;11.762;2024-01-07T03:26:11;21.10;;;12.80;;
22160;SDS011;49035;48.812;11.762;2024-01-07T03:28:37;23.83;;;12.63;;
22160;SDS011;49035;48.812;11.762;2024-01-07T03:31:09;22.37;;;13.00;;
22160;SDS011;49035;48.812;11.762;2024-01-07T03:33:37;21.87;;;12.17;;
22160;SDS011;49035;48.812;11.762;2024-01-07T03:36:22;23.87;;;13.37;;
22160;SDS011;49035;48.812;11.762;2024-01-07T03:38:47;21.57;;;12.93;;
22160;SDS011;49035;48.812;11.762;2024-01-07T03:41:16;19.73;;;11.43;;
22160;SDS011;49035;48.812;11.762;2024-01-07T03:43:46;23.13;;;11.70;;
22160;SDS011;49035;48.812;11.762;2024-01-07T03:46:12;20.00;;;12.57;;
22160;SDS011;49035;48.812;11.762;2024-01-07T03:48:38;19.43;;;12.03;;
22160;SDS011;49035;48.812;11.762;2024-01-07T03:51:03;19.33;;;11.83;;
22160;SDS011;49035;48.812;11.762;2024-01-07T03:53:29;19.80;;;12.37;;
22160;SDS011;49035;48.812;11.762;2024-01-07T03:55:55;24.60;;;12.87;;
22160;SDS011;49035;48.812;11.762;2024-01-07T03:58:20;19.73;;;12.03;;
22160;SDS011;49035;48.812;11.762;2024-01-07T04:00:46;22.30;;;13.60;;
22160;SDS011;49035;48.812;11.762;2024-01-07T04:03:11;24.13;;;13.23;;
22160;SDS011;49035;48.812;11.762;2024-01-07T04:05:37;22.00;;;13.10;;
22160;SDS011;49035;48.812;11.762;2024-01-07T04:08:03;20.90;;;11.93;;
22160;SDS011;49035;48.812;11.762;2024-01-07T04:10:29;23.30;;;13.33;;
22160;SDS011;49035;48.812;11.762;2024-01-07T04:12:54;21.17;;;13.03;;
22160;SDS011;49035;48.812;11.762;2024-01-07T04:15:20;23.00;;;13.13;;
22160;SDS011;49035;48.812;11.762;2024-01-07T04:17:46;19.80;;;12.47;;
22160;SDS011;49035;48.812;11.762;2024-01-07T04:20:12;22.03;;;12.43;;
22160;SDS011;49035;48.812;11.762;2024-01-07T04:22:38;21.27;;;12.37;;
22160;SDS011;49035;48.812;11.762;2024-01-07T04:25:04;18.87;;;12.33;;
22160;SDS011;49035;48.812;11.762;2024-01-07T04:27:36;22.13;;;12.60;;
22160;SDS011;49035;48.812;11.762;2024-01-07T04:30:03;21.53;;;12.77;;
22160;SDS011;49035;48.812;11.762;2024-01-07T04:32:29;21.77;;;12.97;;
22160;SDS011;49035;48.812;11.762;2024-01-07T04:34:55;22.07;;;12.90;;
22160;SDS011;49035;48.812;11.762;2024-01-07T04:37:22;22.17;;;13.17;;
22160;SDS011;49035;48.812;11.762;2024-01-07T04:39:48;19.47;;;11.83;;
22160;SDS011;49035;48.812;11.762;2024-01-07T04:42:13;20.30;;;12.10;;
22160;SDS011;49035;48.812;11.762;2024-01-07T04:44:39;20.00;;;12.57;;
22160;SDS011;49035;48.812;11.762;2024-01-07T04:47:21;19.90;;;12.23;;
22160;SDS011;49035;48.812;11.762;2024-01-07T04:49:48;22.90;;;12.33;;
22160;SDS011;49035;48.812;11.762;2024-01-07T04:52:14;20.80;;;12.70;;
22160;SDS011;49035;48.812;11.762;2024-01-07T04:54:40;20.33;;;12.80;;
22160;SDS011;49035;48.812;11.762;2024-01-07T04:57:05;22.30;;;12.67;;
22160;SDS011;49035;48.812;11.762;2024-01-07T04:59:31;24.70;;;12.63;;
22160;SDS011;49035;48.812;11.762;2024-01-07T05:01:56;23.37;;;12.77;;
22160;SDS011;49035;48.812;11.762;2024-01-07T05:04:22;21.20;;;13.00;;
22160;SDS011;49035;48.812;11.762;2024-01-07T05:06:47;23.53;;;12.83;;
22160;SDS011;49035;48.812;11.762;2024-01-07T05:09:13;22.43;;;13.10;;
22160;SDS011;49035;48.812;11.762;2024-01-07T05:11:39;26.07;;;12.83;;
22160;SDS011;49035;48.812;11.762;2024-01-07T05:14:05;20.47;;;11.87;;
22160;SDS011;49035;48.812;11.762;2024-01-07T05:16:30;22.73;;;11.47;;
22160;SDS011;49035;48.812;11.762;2024-01-07T05:18:56;21.37;;;12.17;;
22160;SDS011;49035;48.812;11.762;2024-01-07T05:21:22;21.70;;;10.73;;
22160;SDS011;49035;48.812;11.762;2024-01-07T05:23:48;17.13;;;10.47;;
22160;SDS011;49035;48.812;11.762;2024-01-07T05:26:13;18.57;;;10.33;;
22160;SDS011;49035;48.812;11.762;2024-01-07T05:28:40;16.37;;;9.97;;
22160;SDS011;49035;48.812;11.762;2024-01-07T05:31:13;17.10;;;9.67;;
22160;SDS011;49035;48.812;11.762;2024-01-07T05:33:42;16.87;;;10.03;;
22160;SDS011;49035;48.812;11.762;2024-01-07T05:36:09;16.50;;;11.00;;
22160;SDS011;49035;48.812;11.762;2024-01-07T05:38:38;17.40;;;9.97;;
22160;SDS011;49035;48.812;11.762;2024-01-07T05:41:04;17.20;;;9.67;;
22160;SDS011;49035;48.812;11.762;2024-01-07T05:43:30;16.17;;;8.63;;
22160;SDS011;49035;48.812;11.762;2024-01-07T05:45:56;19.77;;;11.13;;
22160;SDS011;49035;48.812;11.762;2024-01-07T05:48:21;16.47;;;9.33;;
22160;SDS011;49035;48.812;11.762;2024-01-07T05:50:48;17.87;;;9.57;;
22160;SDS011;49035;48.812;11.762;2024-01-07T05:53:14;17.73;;;9.30;;
22160;SDS011;49035;48.812;11.762;2024-01-07T05:55:39;17.53;;;10.07;;
22160;SDS011;49035;48.812;11.762;2024-01-07T05:58:05;18.17;;;9.20;;
22160;SDS011;49035;48.812;11.762;2024-01-07T06:00:30;16.90;;;10.50;;
22160;SDS011;49035;48.812;11.762;2024-01-07T06:02:56;16.73;;;9.63;;
22160;SDS011;49035;48.812;11.762;2024-01-07T06:05:22;16.90;;;10.13;;
22160;SDS011;49035;48.812;11.762;2024-01-07T06:07:48;18.77;;;9.80;;
22160;SDS011;49035;48.812;11.762;2024-01-07T06:10:14;17.13;;;9.70;;
22160;SDS011;49035;48.812;11.762;2024-01-07T06:12:40;17.20;;;9.53;;
22160;SDS011;49035;48.812;11.762;2024-01-07T06:15:05;16.50;;;10.00;;
22160;SDS011;49035;48.812;11.762;2024-01-07T06:17:31;16.83;;;10.37;;
22160;SDS011;49035;48.812;11.762;2024-01-07T06:19:57;16.87;;;10.10;;
22160;SDS011;49035;48.812;11.762;2024-01-07T06:22:22;19.93;;;10.97;;
22160;SDS011;49035;48.812;11.762;2024-01-07T06:24:48;19.03;;;10.80;;
22160;SDS011;49035;48.812;11.762;2024-01-07T06:27:14;21.20;;;11.90;;
22160;SDS011;49035;48.812;11.762;2024-01-07T06:29:39;17.63;;;10.87;;
22160;SDS011;49035;48.812;11.762;2024-01-07T06:32:05;21.03;;;11.53;;
22160;SDS011;49035;48.812;11.762;2024-01-07T06:34:31;17.87;;;10.73;;
22160;SDS011;49035;48.812;11.762;2024-01-07T06:36:57;20.87;;;11.30;;
22160;SDS011;49035;48.812;11.762;2024-01-07T06:39:23;20.37;;;11.17;;
22160;SDS011;49035;48.812;11.762;2024-01-07T06:41:51;17.87;;;10.53;;
22160;SDS011;49035;48.812;11.762;2024-01-07T06:44:17;21.97;;;10.77;;
22160;SDS011;49035;48.812;11.762;2024-01-07T06:46:43;18.60;;;10.87;;
22160;SDS011;49035;48.812;11.762;2024-01-07T06:49:09;18.97;;;11.20;;
22160;SDS011;49035;48.812;11.762;2024-01-07T06:51:34;19.97;;;10.07;;
22160;SDS011;49035;48.812;11.762;2024-01-07T06:54:00;18.77;;;10.83;;
22160;SDS011;49035;48.812;11.762;2024-01-07T06:56:25;23.33;;;11.87;;
22160;SDS011;49035;48.812;11.762;2024-01-07T06:58:51;21.13;;;11.50;;
22160;SDS011;49035;48.812;11.762;2024-01-07T07:01:20;21.33;;;10.87;;
22160;SDS011;49035;48.812;11.762;2024-01-07T07:03:48;19.57;;;11.57;;
22160;SDS011;49035;48.812;11.762;2024-01-07T07:06:14;21.67;;;11.23;;
22160;SDS011;49035;48.812;11.762;2024-01-07T07:08:40;22.80;;;11.13;;
22160;SDS011;49035;48.812;11.762;2024-01-07T07:11:05;18.80;;;11.23;;
22160;SDS011;49035;48.812;11.762;2024-01-07T07:13:31;23.53;;;12.07;;
22160;SDS011;49035;48.812;11.762;2024-01-07T07:15:56;21.90;;;11.27;;
22160;SDS011;49035;48.812;11.762;2024-01-07T07:18:22;21.83;;;12.63;;
22160;SDS011;49035;48.812;11.762;2024-01-07T07:20:48;23.07;;;12.53;;
22160;SDS011;49035;48.812;11.762;2024-01-07T07:23:13;23.60;;;12.97;;
22160;SDS011;49035;48.812;11.762;2024-01-07T07:25:39;21.53;;;11.57;;
22160;SDS011;49035;48.812;11.762;2024-01-07T07:28:04;21.23;;;12.33;;
22160;SDS011;49035;48.812;11.762;2024-01-07T07:30:30;23.13;;;12.57;;
22160;SDS011;49035;48.812;11.762;2024-01-07T07:32:56;22.60;;;12.03;;
22160;SDS011;49035;48.812;11.762;2024-01-07T07:35:21;19.87;;;12.03;;
22160;SDS011;49035;48.812;11.762;2024-01-07T07:37:47;20.70;;;11.60;;
22160;SDS011;49035;48.812;11.762;2024-01-07T07:40:13;18.70;;;11.70;;
22160;SDS011;49035;48.812;11.762;2024-01-07T07:42:38;20.83;;;10.93;;
22160;SDS011;49035;48.812;11.762;2024-01-07T07:45:05;20.23;;;10.90;;
22160;SDS011;49035;48.812;11.762;2024-01-07T07:47:31;19.83;;;10.27;;
22160;SDS011;49035;48.812;11.762;2024-01-07T07:49:56;18.53;;;10.67;;
22160;SDS011;49035;48.812;11.762;2024-01-07T07:52:22;18.93;;;10.57;;
22160;SDS011;49035;48.812;11.762;2024-01-07T07:54:51;19.63;;;10.30;;
22160;SDS011;49035;48.812;11.762;2024-01-07T07:57:17;20.20;;;11.27;;
22160;SDS011;49035;48.812;11.762;2024-01-07T07:59:45;20.23;;;10.70;;
22160;SDS011;49035;48.812;11.762;2024-01-07T08:02:11;18.63;;;11.47;;
22160;SDS011;49035;48.812;11.762;2024-01-07T08:04:37;19.47;;;10.97;;
22160;SDS011;49035;48.812;11.762;2024-01-07T08:07:09;19.13;;;10.87;;
22160;SDS011;49035;48.812;11.762;2024-01-07T08:09:35;20.17;;;11.03;;
22160;SDS011;49035;48.812;11.762;2024-01-07T08:12:02;20.07;;;11.43;;
22160;SDS011;49035;48.812;11.762;2024-01-07T08:14:29;19.50;;;11.53;;
22160;SDS011;49035;48.812;11.762;2024-01-07T08:16:55;24.57;;;11.70;;
22160;SDS011;49035;48.812;11.762;2024-01-07T08:19:21;21.27;;;11.07;;
22160;SDS011;49035;48.812;11.762;2024-01-07T08:21:46;22.33;;;11.70;;
22160;SDS011;49035;48.812;11.762;2024-01-07T08:24:12;21.90;;;11.80;;
22160;SDS011;49035;48.812;11.762;2024-01-07T08:26:38;16.93;;;10.33;;
22160;SDS011;49035;48.812;11.762;2024-01-07T08:29:04;20.50;;;10.80;;
22160;SDS011;49035;48.812;11.762;2024-01-07T08:31:29;18.47;;;10.67;;
22160;SDS011;49035;48.812;11.762;2024-01-07T08:33:56;19.53;;;10.77;;
22160;SDS011;49035;48.812;11.762;2024-01-07T08:36:21;18.17;;;9.63;;
22160;SDS011;49035;48.812;11.762;2024-01-07T08:38:47;18.20;;;9.90;;
22160;SDS011;49035;48.812;11.762;2024-01-07T08:41:15;16.37;;;9.10;;
22160;SDS011;49035;48.812;11.762;2024-01-07T08:43:41;16.50;;;8.70;;
22160;SDS011;49035;48.812;11.762;2024-01-07T08:46:06;18.00;;;9.83;;
22160;SDS011;49035;48.812;11.762;2024-01-07T08:48:32;15.10;;;9.20;;
22160;SDS011;49035;48.812;11.762;2024-01-07T08:50:58;15.13;;;8.87;;
22160;SDS011;49035;48.812;11.762;2024-01-07T08:53:23;15.83;;;9.50;;
22160;SDS011;49035;48.812;11.762;2024-01-07T08:55:49;14.97;;;9.13;;
22160;SDS011;49035;48.812;11.762;2024-01-07T08:58:15;16.77;;;8.73;;
22160;SDS011;49035;48.812;11.762;2024-01-07T09:00:41;13.67;;;7.43;;
22160;SDS011;49035;48.812;11.762;2024-01-07T09:03:07;16.07;;;8.63;;
22160;SDS011;49035;48.812;11.762;2024-01-07T09:05:33;15.97;;;8.30;;
22160;SDS011;49035;48.812;11.762;2024-01-07T09:07:59;15.87;;;8.60;;
22160;SDS011;49035;48.812;11.762;2024-01-07T09:10:25;14.23;;;8.17;;
22160;SDS011;49035;48.812;11.762;2024-01-07T09:12:51;13.10;;;8.10;;
22160;SDS011;49035;48.812;11.762;2024-01-07T09:15:18;14.00;;;7.83;;
22160;SDS011;49035;48.812;11.762;2024-01-07T09:17:45;13.77;;;8.10;;
22160;SDS011;49035;48.812;11.762;2024-01-07T09:20:11;15.90;;;8.03;;
22160;SDS011;49035;48.812;11.762;2024-01-07T09:22:37;11.87;;;7.37;;
22160;SDS011;49035;48.812;11.762;2024-01-07T09:25:03;15.63;;;8.00;;
22160;SDS011;49035;48.812;11.762;2024-01-07T09:27:30;13.17;;;7.33;;
22160;SDS011;49035;48.812;11.762;2024-01-07T09:29:56;12.10;;;7.63;;
22160;SDS011;49035;48.812;11.762;2024-01-07T09:32:22;13.63;;;7.43;;
22160;SDS011;49035;48.812;11.762;2024-01-07T09:34:48;13.60;;;7.60;;
22160;SDS011;49035;48.812;11.762;2024-01-07T09:37:13;14.43;;;7.83;;
22160;SDS011;49035;48.812;11.762;2024-01-07T09:39:39;12.37;;;7.00;;
22160;SDS011;49035;48.812;11.762;2024-01-07T09:42:15;15.43;;;8.33;;
22160;SDS011;49035;48.812;11.762;2024-01-07T09:44:44;12.43;;;7.23;;
22160;SDS011;49035;48.812;11.762;2024-01-07T09:47:10;12.90;;;7.40;;
22160;SDS011;49035;48.812;11.762;2024-01-07T09:49:37;12.07;;;7.43;;
22160;SDS011;49035;48.812;11.762;2024-01-07T09:52:07;11.20;;;7.17;;
22160;SDS011;49035;48.812;11.762;2024-01-07T09:54:37;12.50;;;7.47;;
22160;SDS011;49035;48.812;11.762;2024-01-07T09:57:05;15.27;;;7.90;;
22160;SDS011;49035;48.812;11.762;2024-01-07T09:59:31;11.80;;;6.57;;
22160;SDS011;49035;48.812;11.762;2024-01-07T10:01:57;13.93;;;7.70;;
22160;SDS011;49035;48.812;11.762;2024-01-07T10:04:23;12.23;;;7.30;;
22160;SDS011;49035;48.812;11.762;2024-01-07T10:06:50;12.83;;;7.50;;
22160;SDS011;49035;48.812;11.762;2024-01-07T10:09:17;14.63;;;7.93;;
22160;SDS011;49035;48.812;11.762;2024-01-07T10:11:44;17.30;;;8.37;;
22160;SDS011;49035;48.812;11.762;2024-01-07T10:14:09;14.23;;;8.33;;
22160;SDS011;49035;48.812;11.762;2024-01-07T10:16:35;15.47;;;8.63;;
22160;SDS011;49035;48.812;11.762;2024-01-07T10:19:01;13.53;;;8.00;;
22160;SDS011;49035;48.812;11.762;2024-01-07T10:21:27;14.87;;;8.63;;
22160;SDS011;49035;48.812;11.762;2024-01-07T10:24:08;17.07;;;8.43;;
22160;SDS011;49035;48.812;11.762;2024-01-07T10:26:35;16.27;;;9.17;;
22160;SDS011;49035;48.812;11.762;2024-01-07T10:29:05;14.67;;;8.73;;
22160;SDS011;49035;48.812;11.762;2024-01-07T10:31:32;18.37;;;10.10;;
22160;SDS011;49035;48.812;11.762;2024-01-07T10:33:58;19.93;;;9.07;;
22160;SDS011;49035;48.812;11.762;2024-01-07T10:36:24;17.07;;;10.10;;
22160;SDS011;49035;48.812;11.762;2024-01-07T10:38:50;19.37;;;10.97;;
22160;SDS011;49035;48.812;11.762;2024-01-07T10:41:18;16.23;;;10.27;;
22160;SDS011;49035;48.812;11.762;2024-01-07T10:43:46;16.47;;;10.10;;
22160;SDS011;49035;48.812;11.762;2024-01-07T10:46:13;18.57;;;10.73;;
22160;SDS011;49035;48.812;11.762;2024-01-07T10:48:43;16.97;;;10.73;;
22160;SDS011;49035;48.812;11.762;2024-01-07T10:51:24;18.13;;;11.07;;
22160;SDS011;49035;48.812;11.762;2024-01-07T10:53:52;16.27;;;10.03;;
22160;SDS011;49035;48.812;11.762;2024-01-07T10:56:25;17.97;;;10.40;;
22160;SDS011;49035;48.812;11.762;2024-01-07T10:58:58;18.23;;;11.77;;
22160;SDS011;49035;48.812;11.762;2024-01-07T11:01:24;19.43;;;11.50;;
22160;SDS011;49035;48.812;11.762;2024-01-07T11:06:31;20.67;;;11.20;;
22160;SDS011;49035;48.812;11.762;2024-01-07T11:11:56;16.67;;;10.90;;
22160;SDS011;49035;48.812;11.762;2024-01-07T11:14:39;16.73;;;10.30;;
22160;SDS011;49035;48.812;11.762;2024-01-07T11:17:09;19.73;;;11.07;;
22160;SDS011;49035;48.812;11.762;2024-01-07T11:19:35;16.30;;;10.07;;
22160;SDS011;49035;48.812;11.762;2024-01-07T11:22:22;19.10;;;11.03;;
22160;SDS011;49035;48.812;11.762;2024-01-07T11:24:52;16.10;;;10.10;;
22160;SDS011;49035;48.812;11.762;2024-01-07T11:27:22;15.43;;;9.97;;
22160;SDS011;49035;48.812;11.762;2024-01-07T11:29:55;17.47;;;10.77;;
22160;SDS011;49035;48.812;11.762;2024-01-07T11:32:22;17.03;;;9.03;;
22160;SDS011;49035;48.812;11.762;2024-01-07T11:34:49;17.40;;;10.67;;
22160;SDS011;49035;48.812;11.762;2024-01-07T11:37:18;18.93;;;10.63;;
22160;SDS011;49035;48.812;11.762;2024-01-07T11:39:44;22.53;;;11.37;;
22160;SDS011;49035;48.812;11.762;2024-01-07T11:42:11;19.97;;;11.17;;
22160;SDS011;49035;48.812;11.762;2024-01-07T11:44:37;20.93;;;11.37;;
22160;SDS011;49035;48.812;11.762;2024-01-07T11:47:09;23.37;;;11.83;;
22160;SDS011;49035;48.812;11.762;2024-01-07T11:49:35;23.17;;;12.70;;
22160;SDS011;49035;48.812;11.762;2024-01-07T11:52:00;19.53;;;11.87;;
22160;SDS011;49035;48.812;11.762;2024-01-07T11:54:29;17.83;;;10.67;;
22160;SDS011;49035;48.812;11.762;2024-01-07T11:56:56;21.20;;;11.77;;
22160;SDS011;49035;48.812;11.762;2024-01-07T11:59:22;20.43;;;11.40;;
22160;SDS011;49035;48.812;11.762;2024-01-07T12:01:48;21.03;;;11.57;;
22160;SDS011;49035;48.812;11.762;2024-01-07T12:04:13;22.07;;;12.33;;
22160;SDS011;49035;48.812;11.762;2024-01-07T12:06:39;18.80;;;11.10;;
22160;SDS011;49035;48.812;11.762;2024-01-07T12:09:05;21.13;;;11.97;;
22160;SDS011;49035;48.812;11.762;2024-01-07T12:11:31;18.80;;;11.17;;
22160;SDS011;49035;48.812;11.762;2024-01-07T12:13:57;18.27;;;10.73;;
22160;SDS011;49035;48.812;11.762;2024-01-07T12:16:23;19.83;;;11.37;;
22160;SDS011;49035;48.812;11.762;2024-01-07T12:18:48;19.03;;;11.30;;
22160;SDS011;49035;48.812;11.762;2024-01-07T12:21:20;18.93;;;10.73;;
22160;SDS011;49035;48.812;11.762;2024-01-07T12:23:48;21.13;;;11.90;;
22160;SDS011;49035;48.812;11.762;2024-01-07T12:26:17;19.40;;;11.00;;
22160;SDS011;49035;48.812;11.762;2024-01-07T12:28:51;18.87;;;11.90;;
22160;SDS011;49035;48.812;11.762;2024-01-07T12:31:32;19.80;;;11.67;;
22160;SDS011;49035;48.812;11.762;2024-01-07T12:33:58;22.63;;;12.43;;
22160;SDS011;49035;48.812;11.762;2024-01-07T12:36:24;20.80;;;11.83;;
22160;SDS011;49035;48.812;11.762;2024-01-07T12:38:50;21.63;;;11.37;;
22160;SDS011;49035;48.812;11.762;2024-01-07T12:41:19;18.37;;;11.77;;
22160;SDS011;49035;48.812;11.762;2024-01-07T12:43:45;19.37;;;12.17;;
22160;SDS011;49035;48.812;11.762;2024-01-07T12:46:11;18.93;;;10.73;;
22160;SDS011;49035;48.812;11.762;2024-01-07T12:48:36;21.20;;;11.47;;
22160;SDS011;49035;48.812;11.762;2024-01-07T12:51:02;20.07;;;11.87;;
22160;SDS011;49035;48.812;11.762;2024-01-07T12:53:27;23.63;;;11.80;;
22160;SDS011;49035;48.812;11.762;2024-01-07T12:55:53;19.07;;;10.80;;
22160;SDS011;49035;48.812;11.762;2024-01-07T12:58:19;20.93;;;11.07;;
22160;SDS011;49035;48.812;11.762;2024-01-07T13:00:46;20.23;;;11.30;;
22160;SDS011;49035;48.812;11.762;2024-01-07T13:03:11;20.03;;;12.43;;
22160;SDS011;49035;48.812;11.762;2024-01-07T13:05:42;23.90;;;12.50;;
22160;SDS011;49035;48.812;11.762;2024-01-07T13:08:13;24.80;;;12.23;;
22160;SDS011;49035;48.812;11.762;2024-01-07T13:10:39;20.03;;;11.33;;
22160;SDS011;49035;48.812;11.762;2024-01-07T13:13:05;23.17;;;12.57;;
22160;SDS011;49035;48.812;11.762;2024-01-07T13:15:31;23.20;;;12.30;;
22160;SDS011;49035;48.812;11.762;2024-01-07T13:17:57;20.83;;;12.63;;
22160;SDS011;49035;48.812;11.762;2024-01-07T13:20:22;22.43;;;12.40;;
22160;SDS011;49035;48.812;11.762;2024-01-07T13:22:48;24.37;;;12.13;;
22160;SDS011;49035;48.812;11.762;2024-01-07T13:25:14;21.27;;;12.00;;
22160;SDS011;49035;48.812;11.762;2024-01-07T13:27:40;23.57;;;12.20;;
22160;SDS011;49035;48.812;11.762;2024-01-07T13:30:07;20.03;;;12.43;;
22160;SDS011;49035;48.812;11.762;2024-01-07T13:32:33;21.93;;;12.00;;
22160;SDS011;49035;48.812;11.762;2024-01-07T13:35:04;22.90;;;12.33;;
22160;SDS011;49035;48.812;11.762;2024-01-07T13:37:36;21.97;;;12.43;;
22160;SDS011;49035;48.812;11.762;2024-01-07T13:40:02;22.70;;;11.57;;
22160;SDS011;49035;48.812;11.762;2024-01-07T13:42:28;23.53;;;11.67;;
22160;SDS011;49035;48.812;11.762;2024-01-07T13:44:54;21.77;;;12.10;;
22160;SDS011;49035;48.812;11.762;2024-01-07T13:47:20;21.93;;;12.50;;
22160;SDS011;49035;48.812;11.762;2024-01-07T13:49:46;24.83;;;13.33;;
22160;SDS011;49035;48.812;11.762;2024-01-07T13:52:12;21.67;;;12.03;;
22160;SDS011;49035;48.812;11.762;2024-01-07T13:54:37;20.57;;;12.17;;
22160;SDS011;49035;48.812;11.762;2024-01-07T13:57:03;22.97;;;13.20;;
22160;SDS011;49035;48.812;11.762;2024-01-07T13:59:29;22.73;;;13.07;;
22160;SDS011;49035;48.812;11.762;2024-01-07T14:01:55;23.13;;;12.40;;
22160;SDS011;49035;48.812;11.762;2024-01-07T14:04:23;20.53;;;12.30;;
22160;SDS011;49035;48.812;11.762;2024-01-07T14:06:53;30.93;;;13.07;;
22160;SDS011;49035;48.812;11.762;2024-01-07T14:09:19;22.17;;;12.57;;
22160;SDS011;49035;48.812;11.762;2024-01-07T14:11:45;23.33;;;13.30;;
22160;SDS011;49035;48.812;11.762;2024-01-07T14:14:11;21.73;;;12.87;;
22160;SDS011;49035;48.812;11.762;2024-01-07T14:16:36;22.07;;;12.10;;